createdAt,value
2022-11-15T00:01:14.978Z,100789.16
2022-11-15T00:03:42.593Z,100791.34
2022-11-15T00:06:10.632Z,100794.09
2022-11-15T00:08:38.246Z,100790.51
2022-11-15T00:11:06.008Z,100785.67
2022-11-15T00:13:33.857Z,100779.70
2022-11-15T00:16:02.245Z,100778.66
2022-11-15T00:18:31.257Z,100779.86
2022-11-15T00:21:08.552Z,100783.34
2022-11-15T00:23:36.767Z,100776.85
2022-11-15T00:26:04.700Z,100776.88
2022-11-15T00:28:32.621Z,100774.33
2022-11-15T00:31:05.055Z,100775.17
2022-11-15T00:33:33.386Z,100775.48
2022-11-15T00:36:03.474Z,100769.36
2022-11-15T00:38:35.157Z,100769.46
2022-11-15T00:41:09.173Z,100762.59
2022-11-15T00:43:37.870Z,100759.17
2022-11-15T00:46:05.890Z,100755.45
2022-11-15T00:48:33.478Z,100763.05
2022-11-15T00:51:01.294Z,100762.08
2022-11-15T00:53:29.127Z,100756.09
2022-11-15T00:55:57.006Z,100751.15
2022-11-15T00:58:24.599Z,100754.06
2022-11-15T01:00:52.291Z,100748.97
2022-11-15T01:03:19.891Z,100742.16
2022-11-15T01:05:47.454Z,100744.89
2022-11-15T01:08:16.788Z,100743.77
2022-11-15T01:10:44.374Z,100740.35
2022-11-15T01:13:11.955Z,100738.95
2022-11-15T01:15:42.678Z,100738.52
2022-11-15T01:18:10.435Z,100741.89
2022-11-15T01:20:42.204Z,100732.03
2022-11-15T01:23:10.167Z,100729.10
2022-11-15T01:25:38.763Z,100728.44
2022-11-15T01:28:06.342Z,100723.92
2022-11-15T01:30:33.922Z,100720.77
2022-11-15T01:33:01.491Z,100712.38
2022-11-15T01:35:29.070Z,100710.48
2022-11-15T01:37:56.984Z,100715.20
2022-11-15T01:40:24.690Z,100717.45
2022-11-15T01:42:52.257Z,100715.68
2022-11-15T01:45:19.812Z,100713.34
2022-11-15T01:47:53.196Z,100712.05
2022-11-15T01:50:25.887Z,100712.82
2022-11-15T01:52:53.589Z,100713.66
2022-11-15T01:55:25.259Z,100715.83
2022-11-15T01:57:56.321Z,100711.89
2022-11-15T02:00:24.009Z,100711.67
2022-11-15T02:02:51.754Z,100705.13
2022-11-15T02:05:19.445Z,100707.27
2022-11-15T02:07:48.230Z,100705.45
2022-11-15T02:10:21.348Z,100703.14
2022-11-15T02:12:50.392Z,100700.62
2022-11-15T02:15:18.632Z,100696.54
2022-11-15T02:18:15.465Z,100697.84
2022-11-15T02:21:15.543Z,100698.63
2022-11-15T02:24:02.035Z,100697.99
2022-11-15T02:26:57.548Z,100691.96
2022-11-15T02:29:46.612Z,100687.34
2022-11-15T02:32:23.965Z,100682.54
2022-11-15T02:35:03.067Z,100670.94
2022-11-15T02:37:56.858Z,100670.11
2022-11-15T02:40:32.605Z,100667.36
2022-11-15T02:43:25.083Z,100672.06
2022-11-15T02:45:59.602Z,100672.25
2022-11-15T02:48:27.381Z,100674.20
2022-11-15T02:50:55.134Z,100669.34
2022-11-15T02:53:26.756Z,100668.45
2022-11-15T02:55:55.824Z,100668.27
2022-11-15T02:59:00.989Z,100671.59
2022-11-15T03:01:50.337Z,100672.51
2022-11-15T03:04:20.695Z,100672.73
2022-11-15T03:06:54.606Z,100672.95
2022-11-15T03:09:43.643Z,100667.60
2022-11-15T03:12:30.187Z,100670.91
2022-11-15T03:15:02.720Z,100679.94
2022-11-15T03:17:42.033Z,100672.91
2022-11-15T03:20:11.389Z,100674.91
2022-11-15T03:22:43.888Z,100674.41
2022-11-15T03:25:19.034Z,100669.21
2022-11-15T03:27:51.546Z,100664.23
2022-11-15T03:30:20.061Z,100659.49
2022-11-15T03:32:56.638Z,100650.28
2022-11-15T03:35:45.597Z,100651.66
2022-11-15T03:38:35.503Z,100641.48
2022-11-15T03:41:09.993Z,100638.96
2022-11-15T03:43:47.930Z,100640.55
2022-11-15T03:46:20.819Z,100638.02
2022-11-15T03:48:52.771Z,100641.25
2022-11-15T03:51:20.789Z,100645.33
2022-11-15T03:53:48.472Z,100637.23
2022-11-15T03:56:16.093Z,100635.04
2022-11-15T03:58:43.683Z,100637.54
2022-11-15T04:01:11.300Z,100631.66
2022-11-15T04:03:38.945Z,100620.55
2022-11-15T04:06:06.987Z,100603.48
2022-11-15T04:08:34.547Z,100597.01
2022-11-15T04:11:02.452Z,100598.90
2022-11-15T04:13:30.430Z,100594.23
2022-11-15T04:15:58.234Z,100591.11
2022-11-15T04:18:25.812Z,100591.31
2022-11-15T04:20:53.353Z,100592.02
2022-11-15T04:23:23.450Z,100598.89
2022-11-15T04:25:54.827Z,100608.17
2022-11-15T04:28:23.367Z,100610.29
2022-11-15T04:30:50.911Z,100607.52
2022-11-15T04:33:18.758Z,100602.81
2022-11-15T04:35:46.365Z,100601.86
2022-11-15T04:38:14.180Z,100600.20
2022-11-15T04:40:41.766Z,100604.70
2022-11-15T04:43:09.343Z,100603.45
2022-11-15T04:45:37.018Z,100593.96
2022-11-15T04:48:04.971Z,100587.02
2022-11-15T04:50:32.558Z,100586.16
2022-11-15T04:53:00.130Z,100592.22
2022-11-15T04:55:27.713Z,100589.08
2022-11-15T04:58:02.915Z,100581.68
2022-11-15T05:00:30.690Z,100586.80
2022-11-15T05:02:58.588Z,100586.52
2022-11-15T05:05:26.167Z,100587.24
2022-11-15T05:07:53.857Z,100582.04
2022-11-15T05:10:21.545Z,100580.44
2022-11-15T05:12:49.240Z,100575.21
2022-11-15T05:15:16.967Z,100570.00
2022-11-15T05:17:44.512Z,100570.05
2022-11-15T05:20:14.505Z,100575.38
2022-11-15T05:22:42.354Z,100577.76
2022-11-15T05:25:09.957Z,100583.76
2022-11-15T05:27:37.583Z,100585.52
2022-11-15T05:30:05.616Z,100587.33
2022-11-15T05:32:33.416Z,100588.27
2022-11-15T05:35:01.030Z,100592.02
2022-11-15T05:37:29.939Z,100598.53
2022-11-15T05:39:58.665Z,100590.35
2022-11-15T05:42:28.613Z,100593.91
2022-11-15T05:44:58.210Z,100593.16
2022-11-15T05:47:30.229Z,100593.26
2022-11-15T05:49:58.713Z,100582.63
2022-11-15T05:52:31.669Z,100581.81
2022-11-15T05:55:00.111Z,100579.47
2022-11-15T05:57:27.683Z,100576.41
2022-11-15T05:59:59.102Z,100576.13
2022-11-15T06:02:26.764Z,100567.53
2022-11-15T06:04:54.416Z,100564.08
2022-11-15T06:07:22.283Z,100566.61
2022-11-15T06:09:49.957Z,100565.11
2022-11-15T06:12:17.553Z,100562.82
2022-11-15T06:14:45.254Z,100566.23
2022-11-15T06:17:12.875Z,100565.85
2022-11-15T06:19:40.627Z,100561.12
2022-11-15T06:22:08.376Z,100562.14
2022-11-15T06:24:36.132Z,100570.66
2022-11-15T06:27:03.849Z,100582.00
2022-11-15T06:29:31.537Z,100579.70
2022-11-15T06:31:59.145Z,100575.67
2022-11-15T06:34:26.773Z,100578.12
2022-11-15T06:36:54.405Z,100576.30
2022-11-15T06:39:21.994Z,100580.05
2022-11-15T06:41:49.584Z,100577.15
2022-11-15T06:44:17.156Z,100578.23
2022-11-15T06:46:44.725Z,100577.77
2022-11-15T06:49:12.296Z,100575.78
2022-11-15T06:51:39.872Z,100578.30
2022-11-15T06:54:07.446Z,100583.66
2022-11-15T06:56:35.424Z,100580.48
2022-11-15T06:59:03.063Z,100577.85
2022-11-15T07:01:30.784Z,100579.17
2022-11-15T07:03:58.572Z,100574.75
2022-11-15T07:06:26.205Z,100571.03
2022-11-15T07:08:53.765Z,100570.73
2022-11-15T07:11:21.360Z,100576.83
2022-11-15T07:13:48.896Z,100578.12
2022-11-15T07:16:16.545Z,100575.95
2022-11-15T07:18:44.130Z,100570.99
2022-11-15T07:21:11.942Z,100567.77
2022-11-15T07:23:40.925Z,100571.59
2022-11-15T07:26:09.376Z,100566.85
2022-11-15T07:28:37.467Z,100561.54
2022-11-15T07:31:07.399Z,100558.16
2022-11-15T07:33:36.146Z,100558.45
2022-11-15T07:36:06.635Z,100558.75
2022-11-15T07:38:40.960Z,100557.46
2022-11-15T07:41:10.855Z,100561.89
2022-11-15T07:43:38.460Z,100562.69
2022-11-15T07:46:08.147Z,100560.31
2022-11-15T07:48:43.874Z,100559.86
2022-11-15T07:51:16.437Z,100556.42
2022-11-15T07:53:44.889Z,100550.60
2022-11-15T07:56:13.421Z,100550.00
2022-11-15T07:58:41.008Z,100552.87
2022-11-15T08:01:10.730Z,100550.88
2022-11-15T08:03:38.482Z,100548.50
2022-11-15T08:06:06.311Z,100543.83
2022-11-15T08:08:33.886Z,100538.95
2022-11-15T08:11:01.970Z,100535.64
2022-11-15T08:13:29.806Z,100537.04
2022-11-15T08:16:02.147Z,100541.22
2022-11-15T08:18:29.803Z,100532.14
2022-11-15T08:21:03.785Z,100526.52
2022-11-15T08:23:31.802Z,100527.55
2022-11-15T08:26:01.551Z,100524.08
2022-11-15T08:28:29.534Z,100522.16
2022-11-15T08:30:57.239Z,100518.88
2022-11-15T08:33:25.102Z,100522.04
2022-11-15T08:35:52.692Z,100520.09
2022-11-15T08:38:20.364Z,100517.86
2022-11-15T08:40:48.151Z,100517.36
2022-11-15T08:43:15.753Z,100513.73
2022-11-15T08:45:43.368Z,100509.02
2022-11-15T08:48:11.025Z,100505.89
2022-11-15T08:50:38.572Z,100506.79
2022-11-15T08:53:10.885Z,100502.96
2022-11-15T08:55:39.813Z,100504.55
2022-11-15T08:58:07.697Z,100502.00
2022-11-15T09:00:35.359Z,100500.31
2022-11-15T09:03:07.060Z,100497.62
2022-11-15T09:05:36.823Z,100499.67
2022-11-15T09:08:25.022Z,100495.14
2022-11-15T09:10:52.885Z,100486.74
2022-11-15T09:13:20.479Z,100481.11
2022-11-15T09:15:48.125Z,100484.00
2022-11-15T09:18:15.855Z,100489.80
2022-11-15T09:20:43.420Z,100482.52
2022-11-15T09:23:11.001Z,100477.13
2022-11-15T09:25:38.573Z,100474.16
2022-11-15T09:28:09.708Z,100471.73
2022-11-15T09:30:37.273Z,100467.89
2022-11-15T09:33:09.919Z,100459.48
2022-11-15T09:35:37.588Z,100457.73
2022-11-15T09:38:05.846Z,100456.54
2022-11-15T09:40:37.541Z,100459.02
2022-11-15T09:43:30.255Z,100460.42
2022-11-15T09:46:53.678Z,100459.55
2022-11-15T09:49:22.241Z,100456.63
2022-11-15T09:51:52.250Z,100462.06
2022-11-15T09:54:52.918Z,100458.24
2022-11-15T09:58:01.713Z,100455.98
2022-11-15T10:00:52.713Z,100451.41
2022-11-15T10:03:39.436Z,100445.98
2022-11-15T10:06:10.833Z,100451.19
2022-11-15T10:08:44.341Z,100443.46
2022-11-15T10:14:19.499Z,100434.58
2022-11-15T10:16:53.130Z,100438.75
2022-11-15T10:19:20.664Z,100431.58
2022-11-15T10:22:00.084Z,100425.10
2022-11-15T10:24:31.753Z,100431.90
2022-11-15T10:26:59.242Z,100433.63
2022-11-15T10:29:27.444Z,100429.45
2022-11-15T10:31:55.193Z,100423.83
2022-11-15T10:34:24.872Z,100418.73
2022-11-15T10:36:57.657Z,100411.17
2022-11-15T10:39:26.220Z,100409.36
2022-11-15T10:41:54.677Z,100405.30
2022-11-15T10:44:30.190Z,100401.61
2022-11-15T10:46:57.730Z,100404.20
2022-11-15T10:49:28.090Z,100397.59
2022-11-15T10:52:16.090Z,100394.98
2022-11-15T10:54:48.351Z,100391.47
2022-11-15T10:57:21.353Z,100384.14
2022-11-15T11:00:05.698Z,100379.56
2022-11-15T11:02:46.571Z,100378.13
2022-11-15T11:05:29.294Z,100369.40
2022-11-15T11:08:03.284Z,100362.26
2022-11-15T11:13:30.766Z,100348.89
2022-11-15T11:16:01.067Z,100350.18
2022-11-15T11:18:39.544Z,100345.38
2022-11-15T11:21:14.017Z,100345.79
2022-11-15T11:24:04.405Z,100343.05
2022-11-15T11:27:07.491Z,100345.71
2022-11-15T11:29:50.116Z,100334.08
2022-11-15T11:32:55.856Z,100336.20
2022-11-15T11:35:46.467Z,100333.77
2022-11-15T11:38:29.366Z,100335.86
2022-11-15T11:41:35.567Z,100330.10
2022-11-15T11:44:18.440Z,100325.23
2022-11-15T11:46:56.222Z,100318.95
2022-11-15T11:49:51.520Z,100320.88
2022-11-15T11:52:59.480Z,100317.23
2022-11-15T11:55:40.316Z,100310.66
2022-11-15T11:58:36.218Z,100312.97
2022-11-15T12:01:29.382Z,100317.16
2022-11-15T12:04:05.095Z,100316.28
2022-11-15T12:06:54.629Z,100309.52
2022-11-15T12:09:40.454Z,100295.91
2022-11-15T12:12:36.776Z,100289.83
2022-11-15T12:15:18.018Z,100288.61
2022-11-15T12:17:47.236Z,100285.09
2022-11-15T12:20:17.351Z,100281.74
2022-11-15T12:23:11.869Z,100278.73
2022-11-15T12:25:51.544Z,100279.03
2022-11-15T12:29:05.932Z,100271.66
2022-11-15T12:31:35.797Z,100260.46
2022-11-15T12:34:36.118Z,100259.57
2022-11-15T12:37:34.164Z,100250.83
2022-11-15T12:40:04.660Z,100245.40
2022-11-15T12:42:36.420Z,100246.59
2022-11-15T12:45:23.910Z,100249.89
2022-11-15T12:47:51.545Z,100249.73
2022-11-15T12:50:54.092Z,100247.78
2022-11-15T12:53:24.417Z,100246.39
2022-11-15T12:56:07.205Z,100246.04
2022-11-15T12:58:43.792Z,100236.61
2022-11-15T13:01:11.639Z,100233.65
2022-11-15T13:04:17.908Z,100231.89
2022-11-15T13:06:46.775Z,100235.88
2022-11-15T13:09:32.768Z,100230.97
2022-11-15T13:12:28.117Z,100233.41
2022-11-15T13:14:57.971Z,100239.88
2022-11-15T13:17:27.380Z,100239.89
2022-11-15T13:19:59.819Z,100240.77
2022-11-15T13:22:28.901Z,100238.85
2022-11-15T13:24:57.395Z,100233.13
2022-11-15T13:27:25.888Z,100234.92
2022-11-15T13:29:54.286Z,100228.13
2022-11-15T13:32:22.531Z,100226.05
2022-11-15T13:34:52.705Z,100223.44
2022-11-15T13:37:20.630Z,100218.73
2022-11-15T13:39:49.769Z,100214.55
2022-11-15T13:42:20.206Z,100208.61
2022-11-15T13:45:00.279Z,100205.63
2022-11-15T13:47:29.844Z,100200.58
2022-11-15T13:50:00.959Z,100194.48
2022-11-15T13:52:34.370Z,100194.47
2022-11-15T13:55:11.951Z,100186.61
2022-11-15T13:58:01.341Z,100186.39
2022-11-15T14:00:34.687Z,100182.87
2022-11-15T14:03:14.627Z,100184.92
2022-11-15T14:05:45.195Z,100186.64
2022-11-15T14:08:21.701Z,100182.95
2022-11-15T14:10:49.587Z,100181.90
2022-11-15T14:13:31.677Z,100180.29
2022-11-15T14:16:21.736Z,100176.79
2022-11-15T14:18:51.933Z,100166.32
2022-11-15T14:21:21.068Z,100170.32
2022-11-15T14:23:48.734Z,100169.63
2022-11-15T14:26:33.797Z,100167.35
2022-11-15T14:29:23.115Z,100155.47
2022-11-15T14:31:50.951Z,100154.08
2022-11-15T14:34:18.574Z,100154.77
2022-11-15T14:36:46.185Z,100152.65
2022-11-15T14:39:13.790Z,100149.52
2022-11-15T14:41:41.523Z,100142.70
2022-11-15T14:44:11.745Z,100133.14
2022-11-15T14:46:39.401Z,100132.42
2022-11-15T14:49:07.011Z,100129.82
2022-11-15T14:51:34.598Z,100127.58
2022-11-15T14:54:02.432Z,100123.56
2022-11-15T14:56:30.020Z,100121.47
2022-11-15T14:59:00.692Z,100115.19
2022-11-15T15:01:28.282Z,100118.85
2022-11-15T15:03:55.924Z,100125.14
2022-11-15T15:06:23.963Z,100127.90
2022-11-15T15:08:51.533Z,100128.77
2022-11-15T15:11:25.207Z,100131.20
2022-11-15T15:13:53.828Z,100128.94
2022-11-15T15:16:21.353Z,100122.32
2022-11-15T15:18:48.962Z,100118.33
2022-11-15T15:21:32.213Z,100112.92
2022-11-15T15:24:03.222Z,100113.43
2022-11-15T15:26:30.894Z,100111.33
2022-11-15T15:28:58.664Z,100110.80
2022-11-15T15:31:26.316Z,100109.39
2022-11-15T15:33:53.880Z,100109.90
2022-11-15T15:36:21.562Z,100111.65
2022-11-15T15:38:49.152Z,100116.34
2022-11-15T15:41:17.675Z,100120.88
2022-11-15T15:43:45.492Z,100121.23
2022-11-15T15:46:15.951Z,100122.95
2022-11-15T15:48:44.424Z,100123.44
2022-11-15T15:51:19.589Z,100121.52
2022-11-15T15:53:49.117Z,100117.34
2022-11-15T15:56:19.027Z,100118.91
2022-11-15T15:58:46.969Z,100113.70
2022-11-15T16:01:14.617Z,100109.34
2022-11-15T16:03:42.548Z,100106.58
2022-11-15T16:06:34.811Z,100106.41
2022-11-15T16:09:19.024Z,100098.94
2022-11-15T16:11:47.800Z,100101.39
2022-11-15T16:14:15.437Z,100101.56
2022-11-15T16:16:43.056Z,100099.63
2022-11-15T16:19:11.482Z,100094.59
2022-11-15T16:21:39.080Z,100093.17
2022-11-15T16:24:06.666Z,100094.58
2022-11-15T16:26:36.573Z,100096.13
2022-11-15T16:29:04.202Z,100100.14
2022-11-15T16:31:31.734Z,100098.04
2022-11-15T16:33:59.292Z,100095.58
2022-11-15T16:36:30.727Z,100095.04
2022-11-15T16:38:58.879Z,100091.22
2022-11-15T16:41:26.879Z,100089.98
2022-11-15T16:43:54.546Z,100090.68
2022-11-15T16:46:27.192Z,100090.13
2022-11-15T16:48:55.116Z,100090.30
2022-11-15T16:51:23.934Z,100088.91
2022-11-15T16:53:51.623Z,100082.98
2022-11-15T16:56:30.405Z,100076.36
2022-11-15T16:58:59.632Z,100071.66
2022-11-15T17:01:31.201Z,100073.27
2022-11-15T17:03:59.447Z,100066.30
2022-11-15T17:06:27.300Z,100065.64
2022-11-15T17:08:55.373Z,100066.70
2022-11-15T17:11:22.953Z,100066.86
2022-11-15T17:13:50.557Z,100061.98
2022-11-15T17:16:18.460Z,100065.80
2022-11-15T17:18:51.494Z,100060.73
2022-11-15T17:21:21.488Z,100061.44
2022-11-15T17:23:49.404Z,100060.21
2022-11-15T17:26:29.558Z,100055.67
2022-11-15T17:28:58.264Z,100051.32
2022-11-15T17:31:25.842Z,100050.09
2022-11-15T17:33:53.691Z,100049.21
2022-11-15T17:36:21.287Z,100047.45
2022-11-15T17:38:48.987Z,100048.64
2022-11-15T17:41:16.908Z,100045.00
2022-11-15T17:43:44.724Z,100043.93
2022-11-15T17:46:18.288Z,100040.98
2022-11-15T17:48:46.905Z,100036.45
2022-11-15T17:51:17.126Z,100026.34
2022-11-15T17:53:47.610Z,100022.51
2022-11-15T17:56:20.609Z,100012.25
2022-11-15T17:58:53.471Z,100012.97
2022-11-15T18:01:23.950Z,100010.36
2022-11-15T18:03:52.815Z,100007.59
2022-11-15T18:06:22.931Z,100006.58
2022-11-15T18:08:52.334Z,100003.12
2022-11-15T18:11:28.840Z,99995.98
2022-11-15T18:13:59.994Z,99994.42
2022-11-15T18:16:29.949Z,99999.47
2022-11-15T18:19:01.002Z,100001.73
2022-11-15T18:21:30.819Z,100000.34
2022-11-15T18:24:00.782Z,99997.88
2022-11-15T18:26:30.429Z,99992.48
2022-11-15T18:29:05.050Z,99988.63
2022-11-15T18:31:32.627Z,99987.77
2022-11-15T18:34:00.810Z,99987.97
2022-11-15T18:36:33.082Z,99989.02
2022-11-15T18:39:02.139Z,99985.38
2022-11-15T18:41:30.413Z,99986.80
2022-11-15T18:44:00.103Z,99983.67
2022-11-15T18:46:30.271Z,99978.45
2022-11-15T18:48:59.917Z,99976.02
2022-11-15T18:51:30.482Z,99977.05
2022-11-15T18:54:00.688Z,99976.02
2022-11-15T18:56:30.201Z,99978.81
2022-11-15T18:58:59.918Z,99974.63
2022-11-15T19:01:42.118Z,99970.63
2022-11-15T19:04:13.809Z,99966.09
2022-11-15T19:06:43.344Z,99961.58
2022-11-15T19:09:13.060Z,99959.15
2022-11-15T19:11:41.796Z,99954.98
2022-11-15T19:14:11.620Z,99961.60
2022-11-15T19:16:44.804Z,99960.38
2022-11-15T19:19:17.988Z,99960.56
2022-11-15T19:21:46.075Z,99951.48
2022-11-15T19:24:13.748Z,99945.91
2022-11-15T19:26:41.512Z,99949.40
2022-11-15T19:29:09.957Z,99944.51
2022-11-15T19:31:38.321Z,99936.85
2022-11-15T19:34:06.787Z,99938.77
2022-11-15T19:36:37.553Z,99934.06
2022-11-15T19:39:08.122Z,99930.40
2022-11-15T19:41:37.301Z,99930.92
2022-11-15T19:44:06.177Z,99927.96
2022-11-15T19:46:34.821Z,99926.73
2022-11-15T19:49:02.456Z,99929.71
2022-11-15T19:51:30.810Z,99928.48
2022-11-15T19:54:00.778Z,99923.44
2022-11-15T19:56:28.466Z,99919.77
2022-11-15T19:58:56.936Z,99917.33
2022-11-15T20:01:27.498Z,99909.65
2022-11-15T20:03:57.614Z,99906.69
2022-11-15T20:06:30.591Z,99907.91
2022-11-15T20:08:58.938Z,99906.69
2022-11-15T20:11:27.666Z,99904.95
2022-11-15T20:13:59.909Z,99896.42
2022-11-15T20:16:28.094Z,99893.46
2022-11-15T20:18:55.660Z,99891.02
2022-11-15T20:21:23.464Z,99887.52
2022-11-15T20:23:51.867Z,99879.17
2022-11-15T20:26:20.828Z,99873.42
2022-11-15T20:28:48.836Z,99873.75
2022-11-15T20:31:16.935Z,99873.74
2022-11-15T20:33:44.934Z,99870.61
2022-11-15T20:36:14.722Z,99873.92
2022-11-15T20:38:43.759Z,99872.34
2022-11-15T20:41:15.112Z,99872.86
2022-11-15T20:43:42.847Z,99870.95
2022-11-15T20:46:12.034Z,99868.69
2022-11-15T20:48:40.083Z,99865.04
2022-11-15T20:51:18.579Z,99860.33
2022-11-15T20:53:47.752Z,99859.45
2022-11-15T20:56:18.476Z,99864.51
2022-11-15T20:58:47.130Z,99861.21
2022-11-15T21:01:15.571Z,99864.34
2022-11-15T21:03:46.268Z,99864.00
2022-11-15T21:06:13.884Z,99858.06
2022-11-15T21:08:41.515Z,99853.70
2022-11-15T21:11:09.403Z,99852.84
2022-11-15T21:13:39.398Z,99852.14
2022-11-15T21:16:07.639Z,99847.09
2022-11-15T21:18:35.663Z,99840.13
2022-11-15T21:21:06.505Z,99834.74
2022-11-15T21:23:34.163Z,99830.20
2022-11-15T21:26:01.769Z,99836.48
2022-11-15T21:28:32.180Z,99831.61
2022-11-15T21:31:00.437Z,99826.04
2022-11-15T21:33:28.414Z,99821.52
2022-11-15T21:35:57.330Z,99822.55
2022-11-15T21:38:25.559Z,99816.47
2022-11-15T21:40:53.726Z,99820.48
2022-11-15T21:43:21.581Z,99818.21
2022-11-15T21:46:00.212Z,99813.33
2022-11-15T21:48:29.765Z,99809.83
2022-11-15T21:51:08.570Z,99809.30
2022-11-15T21:53:36.172Z,99810.51
2022-11-15T21:56:04.102Z,99806.84
2022-11-15T21:58:32.081Z,99806.16
2022-11-15T22:01:00.242Z,99808.77
2022-11-15T22:03:28.898Z,99807.89
2022-11-15T22:05:56.873Z,99812.43
2022-11-15T22:08:25.531Z,99815.91
2022-11-15T22:10:53.545Z,99813.46
2022-11-15T22:13:21.104Z,99814.88
2022-11-15T22:15:48.807Z,99812.27
2022-11-15T22:18:16.416Z,99812.09
2022-11-15T22:20:58.021Z,99806.35
2022-11-15T22:23:27.681Z,99805.99
2022-11-15T22:25:55.416Z,99801.98
2022-11-15T22:28:23.411Z,99790.48
2022-11-15T22:30:53.223Z,99783.69
2022-11-15T22:33:23.210Z,99777.42
2022-11-15T22:35:51.401Z,99770.27
2022-11-15T22:38:19.422Z,99774.11
2022-11-15T22:40:47.316Z,99767.82
2022-11-15T22:43:18.334Z,99770.08
2022-11-15T22:45:53.082Z,99768.34
2022-11-15T22:48:23.473Z,99760.48
2022-11-15T22:50:51.519Z,99756.66
2022-11-15T22:53:19.486Z,99757.02
2022-11-15T22:55:51.981Z,99757.01
2022-11-15T22:58:21.118Z,99748.64
2022-11-15T23:00:53.523Z,99750.04
2022-11-15T23:03:22.357Z,99749.68
2022-11-15T23:05:50.412Z,99743.23
2022-11-15T23:08:18.567Z,99736.59
2022-11-15T23:10:46.513Z,99737.29
2022-11-15T23:13:14.720Z,99736.07
2022-11-15T23:15:50.024Z,99730.51
2022-11-15T23:18:19.969Z,99734.17
2022-11-15T23:20:47.560Z,99728.42
2022-11-15T23:23:16.483Z,99727.20
2022-11-15T23:25:45.098Z,99727.02
2022-11-15T23:28:12.801Z,99721.79
2022-11-15T23:30:40.430Z,99715.69
2022-11-15T23:33:14.646Z,99710.81
2022-11-15T23:35:42.228Z,99712.38
2022-11-15T23:38:09.834Z,99712.03
2022-11-15T23:40:37.430Z,99704.89
2022-11-15T23:43:05.051Z,99705.95
2022-11-15T23:45:32.674Z,99700.71
2022-11-15T23:48:01.700Z,99700.36
2022-11-15T23:50:29.379Z,99694.62
2022-11-15T23:52:56.995Z,99694.79
2022-11-15T23:55:24.571Z,99690.61
2022-11-15T23:57:52.222Z,99688.16
